sensor_id;sensor_type;location;lat;lon;timestamp;pressure;altitude;pressure_sealevel;temperature;humidity
68474;BME280;55461;52.066;5.194;2022-08-11T00:00:32;102359.0;;;20.81;63.01
68474;BME280;55461;52.066;5.194;2022-08-11T00:02:26;102356.0;;;20.72;62.99
68474;BME280;55461;52.066;5.194;2022-08-11T00:04:15;102357.0;;;20.71;62.64
68474;BME280;55461;52.066;5.194;2022-08-11T00:06:03;102358.0;;;20.78;62.6
68474;BME280;55461;52.066;5.194;2022-08-11T00:09:39;102356.0;;;20.74;62.49
68474;BME280;55461;52.066;5.194;2022-08-11T00:11:31;102356.0;;;20.77;62.33
68474;BME280;55461;52.066;5.194;2022-08-11T00:13:31;102360.0;;;20.84;61.67
68474;BME280;55461;52.066;5.194;2022-08-11T00:15:21;102359.0;;;20.79;60.9
68474;BME280;55461;52.066;5.194;2022-08-11T00:17:10;102352.0;;;20.84;61.08
68474;BME280;55461;52.066;5.194;2022-08-11T00:19:01;102355.0;;;20.67;61.22
68474;BME280;55461;52.066;5.194;2022-08-11T00:20:48;102358.0;;;20.78;60.11
68474;BME280;55461;52.066;5.194;2022-08-11T00:22:39;102359.0;;;20.7;60.21
68474;BME280;55461;52.066;5.194;2022-08-11T00:26:20;102355.0;;;20.63;60.27
68474;BME280;55461;52.066;5.194;2022-08-11T00:28:25;102360.0;;;20.58;59.94
68474;BME280;55461;52.066;5.194;2022-08-11T00:30:13;102359.0;;;20.68;59.57
68474;BME280;55461;52.066;5.194;2022-08-11T00:32:03;102362.0;;;20.74;59.41
68474;BME280;55461;52.066;5.194;2022-08-11T00:33:51;102359.0;;;20.63;59.24
68474;BME280;55461;52.066;5.194;2022-08-11T00:35:38;102364.0;;;20.81;58.78
68474;BME280;55461;52.066;5.194;2022-08-11T00:37:26;102360.0;;;20.53;59.55
68474;BME280;55461;52.066;5.194;2022-08-11T00:41:14;102360.0;;;20.55;59.32
68474;BME280;55461;52.066;5.194;2022-08-11T00:43:14;102361.0;;;20.43;59.57
68474;BME280;55461;52.066;5.194;2022-08-11T00:45:30;102360.0;;;20.41;59.44
68474;BME280;55461;52.066;5.194;2022-08-11T00:47:26;102359.0;;;20.39;59.53
68474;BME280;55461;52.066;5.194;2022-08-11T00:49:30;102367.0;;;20.39;59.26
68474;BME280;55461;52.066;5.194;2022-08-11T00:51:39;102364.0;;;20.45;59.4
68474;BME280;55461;52.066;5.194;2022-08-11T00:53:38;102365.0;;;20.41;58.79
68474;BME280;55461;52.066;5.194;2022-08-11T00:56:05;102367.0;;;20.34;58.88
68474;BME280;55461;52.066;5.194;2022-08-11T00:59:35;102367.0;;;20.41;58.26
68474;BME280;55461;52.066;5.194;2022-08-11T01:02:16;102370.0;;;20.43;58.75
68474;BME280;55461;52.066;5.194;2022-08-11T01:06:51;102364.0;;;20.27;59.05
68474;BME280;55461;52.066;5.194;2022-08-11T01:09:53;102369.0;;;20.29;58.92
68474;BME280;55461;52.066;5.194;2022-08-11T01:11:55;102370.0;;;20.36;58.73
68474;BME280;55461;52.066;5.194;2022-08-11T01:15:33;102366.0;;;20.18;59.79
68474;BME280;55461;52.066;5.194;2022-08-11T01:19:55;102365.0;;;20.11;60.02
68474;BME280;55461;52.066;5.194;2022-08-11T01:22:55;102360.0;;;19.97;59.73
68474;BME280;55461;52.066;5.194;2022-08-11T01:24:54;102358.0;;;19.95;60.73
68474;BME280;55461;52.066;5.194;2022-08-11T01:27:44;102355.0;;;20.11;59.62
68474;BME280;55461;52.066;5.194;2022-08-11T01:31:39;102355.0;;;20.09;59.81
68474;BME280;55461;52.066;5.194;2022-08-11T01:32:47;102353.0;;;20.02;60.08
68474;BME280;55461;52.066;5.194;2022-08-11T01:33:54;102353.0;;;20.02;60.08
68474;BME280;55461;52.066;5.194;2022-08-11T01:35:32;102356.0;;;20.04;59.95
68474;BME280;55461;52.066;5.194;2022-08-11T01:39:45;102352.0;;;19.95;60.3
68474;BME280;55461;52.066;5.194;2022-08-11T01:40:43;102350.0;;;19.91;60.3
68474;BME280;55461;52.066;5.194;2022-08-11T01:41:34;102350.0;;;19.91;60.3
68474;BME280;55461;52.066;5.194;2022-08-11T01:45:05;102352.0;;;19.88;60.96
68474;BME280;55461;52.066;5.194;2022-08-11T01:47:59;102355.0;;;19.82;60.67
68474;BME280;55461;52.066;5.194;2022-08-11T01:49:55;102357.0;;;19.84;60.73
68474;BME280;55461;52.066;5.194;2022-08-11T01:52:05;102355.0;;;19.84;60.71
68474;BME280;55461;52.066;5.194;2022-08-11T01:54:00;102356.0;;;19.72;61.17
68474;BME280;55461;52.066;5.194;2022-08-11T01:55:56;102355.0;;;19.73;61.38
68474;BME280;55461;52.066;5.194;2022-08-11T01:57:52;102355.0;;;19.66;61.45
68474;BME280;55461;52.066;5.194;2022-08-11T01:59:50;102352.0;;;19.62;61.5
68474;BME280;55461;52.066;5.194;2022-08-11T02:01:53;102350.0;;;19.75;61.25
68474;BME280;55461;52.066;5.194;2022-08-11T02:04:11;102352.0;;;19.57;62.29
68474;BME280;55461;52.066;5.194;2022-08-11T02:07:00;102355.0;;;19.61;62.13
68474;BME280;55461;52.066;5.194;2022-08-11T02:08:57;102355.0;;;19.63;61.99
68474;BME280;55461;52.066;5.194;2022-08-11T02:11:54;102353.0;;;19.7;61.7
68474;BME280;55461;52.066;5.194;2022-08-11T02:13:59;102352.0;;;19.41;63.2
68474;BME280;55461;52.066;5.194;2022-08-11T02:16:00;102359.0;;;19.32;63.72
68474;BME280;55461;52.066;5.194;2022-08-11T02:18:03;102356.0;;;19.27;63.85
68474;BME280;55461;52.066;5.194;2022-08-11T02:24:05;102358.0;;;19.36;63.78
68474;BME280;55461;52.066;5.194;2022-08-11T02:26:04;102355.0;;;19.25;64.3
68474;BME280;55461;52.066;5.194;2022-08-11T02:29:57;102356.0;;;19.34;63.72
68474;BME280;55461;52.066;5.194;2022-08-11T02:35:03;102347.0;;;19.14;64.44
68474;BME280;55461;52.066;5.194;2022-08-11T02:37:02;102349.0;;;19.03;65.03
68474;BME280;55461;52.066;5.194;2022-08-11T02:39:02;102348.0;;;19.07;65.05
68474;BME280;55461;52.066;5.194;2022-08-11T02:41:00;102345.0;;;19.11;65.02
68474;BME280;55461;52.066;5.194;2022-08-11T02:42:55;102351.0;;;19.11;64.94
68474;BME280;55461;52.066;5.194;2022-08-11T02:44:58;102350.0;;;18.98;65.81
68474;BME280;55461;52.066;5.194;2022-08-11T02:47:02;102342.0;;;18.97;65.69
68474;BME280;55461;52.066;5.194;2022-08-11T02:52:04;102343.0;;;18.84;66.35
68474;BME280;55461;52.066;5.194;2022-08-11T02:54:01;102345.0;;;18.87;66.23
68474;BME280;55461;52.066;5.194;2022-08-11T02:56:02;102344.0;;;18.93;66.09
68474;BME280;55461;52.066;5.194;2022-08-11T02:57:58;102345.0;;;18.93;66.17
68474;BME280;55461;52.066;5.194;2022-08-11T02:59:52;102343.0;;;19.0;66.33
68474;BME280;55461;52.066;5.194;2022-08-11T03:01:45;102340.0;;;18.95;66.42
68474;BME280;55461;52.066;5.194;2022-08-11T03:03:46;102339.0;;;18.87;66.63
68474;BME280;55461;52.066;5.194;2022-08-11T03:08:05;102336.0;;;18.89;66.55
68474;BME280;55461;52.066;5.194;2022-08-11T03:10:12;102338.0;;;18.86;67.06
68474;BME280;55461;52.066;5.194;2022-08-11T03:18:17;102338.0;;;18.73;67.35
68474;BME280;55461;52.066;5.194;2022-08-11T03:20:24;102338.0;;;18.71;67.53
68474;BME280;55461;52.066;5.194;2022-08-11T03:22:24;102339.0;;;18.68;67.69
68474;BME280;55461;52.066;5.194;2022-08-11T03:24:23;102336.0;;;18.75;67.5
68474;BME280;55461;52.066;5.194;2022-08-11T03:26:15;102332.0;;;18.7;67.77
68474;BME280;55461;52.066;5.194;2022-08-11T03:28:26;102335.0;;;18.64;68.23
68474;BME280;55461;52.066;5.194;2022-08-11T03:30:16;102336.0;;;18.71;67.8
68474;BME280;55461;52.066;5.194;2022-08-11T03:32:08;102335.0;;;18.62;68.24
68474;BME280;55461;52.066;5.194;2022-08-11T03:34:07;102334.0;;;18.75;67.64
68474;BME280;55461;52.066;5.194;2022-08-11T03:36:05;102330.0;;;18.84;67.28
68474;BME280;55461;52.066;5.194;2022-08-11T03:38:09;102333.0;;;18.7;67.83
68474;BME280;55461;52.066;5.194;2022-08-11T03:40:03;102332.0;;;18.66;68.23
68474;BME280;55461;52.066;5.194;2022-08-11T03:42:08;102334.0;;;18.53;69.08
68474;BME280;55461;52.066;5.194;2022-08-11T03:44:27;102334.0;;;18.43;69.37
68474;BME280;55461;52.066;5.194;2022-08-11T03:46:35;102333.0;;;18.43;69.44
68474;BME280;55461;52.066;5.194;2022-08-11T03:48:48;102333.0;;;18.46;69.05
68474;BME280;55461;52.066;5.194;2022-08-11T03:50:53;102332.0;;;18.46;68.99
68474;BME280;55461;52.066;5.194;2022-08-11T03:53:13;102334.0;;;18.52;68.86
68474;BME280;55461;52.066;5.194;2022-08-11T03:55:10;102333.0;;;18.36;69.49
68474;BME280;55461;52.066;5.194;2022-08-11T03:58:18;102331.0;;;18.38;69.31
68474;BME280;55461;52.066;5.194;2022-08-11T04:02:08;102330.0;;;18.37;69.36
68474;BME280;55461;52.066;5.194;2022-08-11T04:04:23;102331.0;;;18.47;68.97
68474;BME280;55461;52.066;5.194;2022-08-11T04:08:54;102328.0;;;18.34;69.86
68474;BME280;55461;52.066;5.194;2022-08-11T04:16:43;102330.0;;;18.3;69.95
68474;BME280;55461;52.066;5.194;2022-08-11T04:20:08;102330.0;;;18.27;70.17
68474;BME280;55461;52.066;5.194;2022-08-11T04:21:49;102327.0;;;18.06;71.02
68474;BME280;55461;52.066;5.194;2022-08-11T04:24:38;102330.0;;;18.06;70.95
68474;BME280;55461;52.066;5.194;2022-08-11T04:26:56;102332.0;;;18.04;71.3
68474;BME280;55461;52.066;5.194;2022-08-11T04:29:16;102332.0;;;18.16;70.64
68474;BME280;55461;52.066;5.194;2022-08-11T04:31:29;102330.0;;;17.98;70.99
68474;BME280;55461;52.066;5.194;2022-08-11T04:33:58;102328.0;;;18.0;71.22
68474;BME280;55461;52.066;5.194;2022-08-11T04:35:53;102328.0;;;18.04;70.94
68474;BME280;55461;52.066;5.194;2022-08-11T04:38:08;102324.0;;;18.11;70.81
68474;BME280;55461;52.066;5.194;2022-08-11T04:41:17;102325.0;;;17.98;71.59
68474;BME280;55461;52.066;5.194;2022-08-11T04:45:49;102325.0;;;18.09;71.16
68474;BME280;55461;52.066;5.194;2022-08-11T05:02:13;102319.0;;;18.0;72.06
68474;BME280;55461;52.066;5.194;2022-08-11T05:08:21;102320.0;;;18.13;71.41
68474;BME280;55461;52.066;5.194;2022-08-11T05:34:59;102330.0;;;18.45;70.52
68474;BME280;55461;52.066;5.194;2022-08-11T05:37:22;102331.0;;;18.54;70.03
68474;BME280;55461;52.066;5.194;2022-08-11T05:57:29;102336.0;;;19.14;67.66
68474;BME280;55461;52.066;5.194;2022-08-11T05:59:21;102335.0;;;19.14;67.14
68474;BME280;55461;52.066;5.194;2022-08-11T06:03:01;102336.0;;;19.16;67.5
68474;BME280;55461;52.066;5.194;2022-08-11T06:04:54;102332.0;;;19.31;66.8
68474;BME280;55461;52.066;5.194;2022-08-11T06:06:51;102330.0;;;19.41;66.73
68474;BME280;55461;52.066;5.194;2022-08-11T06:08:44;102330.0;;;19.37;66.48
68474;BME280;55461;52.066;5.194;2022-08-11T06:10:34;102333.0;;;19.46;66.41
68474;BME280;55461;52.066;5.194;2022-08-11T06:12:24;102336.0;;;19.46;65.5
68474;BME280;55461;52.066;5.194;2022-08-11T06:14:12;102341.0;;;19.61;65.55
68474;BME280;55461;52.066;5.194;2022-08-11T06:17:48;102344.0;;;19.7;65.11
68474;BME280;55461;52.066;5.194;2022-08-11T06:19:37;102342.0;;;19.84;64.33
68474;BME280;55461;52.066;5.194;2022-08-11T06:21:27;102338.0;;;19.96;63.91
68474;BME280;55461;52.066;5.194;2022-08-11T06:23:17;102340.0;;;19.87;63.86
68474;BME280;55461;52.066;5.194;2022-08-11T06:25:07;102338.0;;;20.09;63.64
68474;BME280;55461;52.066;5.194;2022-08-11T06:26:55;102342.0;;;20.23;63.13
68474;BME280;55461;52.066;5.194;2022-08-11T06:28:44;102340.0;;;20.43;62.88
68474;BME280;55461;52.066;5.194;2022-08-11T06:32:24;102340.0;;;20.41;62.06
68474;BME280;55461;52.066;5.194;2022-08-11T06:34:27;102336.0;;;20.58;61.08
68474;BME280;55461;52.066;5.194;2022-08-11T06:36:22;102342.0;;;20.56;60.02
68474;BME280;55461;52.066;5.194;2022-08-11T06:38:26;102341.0;;;20.73;59.93
68474;BME280;55461;52.066;5.194;2022-08-11T06:40:32;102338.0;;;20.67;59.74
68474;BME280;55461;52.066;5.194;2022-08-11T06:42:33;102336.0;;;20.89;59.46
68474;BME280;55461;52.066;5.194;2022-08-11T06:44:26;102332.0;;;21.03;59.37
68474;BME280;55461;52.066;5.194;2022-08-11T06:46:21;102333.0;;;21.18;58.75
68474;BME280;55461;52.066;5.194;2022-08-11T06:48:15;102330.0;;;21.2;58.76
68474;BME280;55461;52.066;5.194;2022-08-11T06:53:06;102330.0;;;21.3;56.75
68474;BME280;55461;52.066;5.194;2022-08-11T06:55:07;102330.0;;;21.48;57.03
68474;BME280;55461;52.066;5.194;2022-08-11T07:00:32;102330.0;;;21.69;55.69
68474;BME280;55461;52.066;5.194;2022-08-11T07:02:25;102330.0;;;21.8;54.29
68474;BME280;55461;52.066;5.194;2022-08-11T07:04:19;102325.0;;;21.9;53.76
68474;BME280;55461;52.066;5.194;2022-08-11T07:16:05;102333.0;;;22.33;52.74
68474;BME280;55461;52.066;5.194;2022-08-11T07:28:58;102334.0;;;22.79;50.93
68474;BME280;55461;52.066;5.194;2022-08-11T07:30:47;102334.0;;;22.86;50.05
68474;BME280;55461;52.066;5.194;2022-08-11T07:32:40;102335.0;;;22.93;51.03
68474;BME280;55461;52.066;5.194;2022-08-11T07:34:39;102330.0;;;22.94;49.9
68474;BME280;55461;52.066;5.194;2022-08-11T07:36:31;102330.0;;;23.02;49.54
68474;BME280;55461;52.066;5.194;2022-08-11T07:38:22;102331.0;;;23.11;49.44
68474;BME280;55461;52.066;5.194;2022-08-11T07:40:12;102331.0;;;23.14;49.83
68474;BME280;55461;52.066;5.194;2022-08-11T07:42:05;102330.0;;;23.21;49.45
68474;BME280;55461;52.066;5.194;2022-08-11T07:52:54;102326.0;;;23.59;47.98
68474;BME280;55461;52.066;5.194;2022-08-11T07:54:41;102328.0;;;23.68;47.13
68474;BME280;55461;52.066;5.194;2022-08-11T08:19:36;102323.0;;;24.56;45.7
68474;BME280;55461;52.066;5.194;2022-08-11T08:23:10;102319.0;;;24.63;45.05
68474;BME280;55461;52.066;5.194;2022-08-11T08:24:57;102317.0;;;24.69;45.7
68474;BME280;55461;52.066;5.194;2022-08-11T08:26:59;102318.0;;;24.73;44.85
68474;BME280;55461;52.066;5.194;2022-08-11T08:28:46;102316.0;;;24.77;44.11
68474;BME280;55461;52.066;5.194;2022-08-11T08:30:50;102319.0;;;24.92;45.04
68474;BME280;55461;52.066;5.194;2022-08-11T08:32:38;102316.0;;;24.97;43.24
68474;BME280;55461;52.066;5.194;2022-08-11T08:34:27;102318.0;;;25.12;42.92
68474;BME280;55461;52.066;5.194;2022-08-11T08:36:16;102316.0;;;25.18;43.6
68474;BME280;55461;52.066;5.194;2022-08-11T08:39:49;102318.0;;;25.19;43.39
68474;BME280;55461;52.066;5.194;2022-08-11T08:41:37;102316.0;;;25.37;43.13
68474;BME280;55461;52.066;5.194;2022-08-11T08:43:26;102312.0;;;25.39;42.87
68474;BME280;55461;52.066;5.194;2022-08-11T08:45:16;102309.0;;;25.6;42.21
68474;BME280;55461;52.066;5.194;2022-08-11T08:47:06;102307.0;;;25.57;42.36
68474;BME280;55461;52.066;5.194;2022-08-11T08:48:59;102307.0;;;25.7;42.16
68474;BME280;55461;52.066;5.194;2022-08-11T08:53:47;102301.0;;;25.88;42.74
68474;BME280;55461;52.066;5.194;2022-08-11T08:55:41;102296.0;;;25.96;41.02
68474;BME280;55461;52.066;5.194;2022-08-11T08:57:32;102297.0;;;26.04;39.94
68474;BME280;55461;52.066;5.194;2022-08-11T08:59:23;102300.0;;;26.23;40.39
68474;BME280;55461;52.066;5.194;2022-08-11T09:03:01;102296.0;;;26.23;38.01
68474;BME280;55461;52.066;5.194;2022-08-11T09:04:50;102298.0;;;26.27;38.1
68474;BME280;55461;52.066;5.194;2022-08-11T09:06:40;102305.0;;;26.38;38.03
68474;BME280;55461;52.066;5.194;2022-08-11T09:08:29;102296.0;;;26.41;37.36
68474;BME280;55461;52.066;5.194;2022-08-11T09:10:18;102296.0;;;26.43;37.83
68474;BME280;55461;52.066;5.194;2022-08-11T09:12:08;102299.0;;;26.52;36.12
68474;BME280;55461;52.066;5.194;2022-08-11T09:13:56;102295.0;;;26.64;36.78
68474;BME280;55461;52.066;5.194;2022-08-11T09:17:33;102295.0;;;26.66;36.4
68474;BME280;55461;52.066;5.194;2022-08-11T09:19:22;102294.0;;;26.82;36.67
68474;BME280;55461;52.066;5.194;2022-08-11T09:21:15;102292.0;;;26.96;36.24
68474;BME280;55461;52.066;5.194;2022-08-11T09:27:12;102284.0;;;27.12;35.39
68474;BME280;55461;52.066;5.194;2022-08-11T09:29:00;102282.0;;;27.22;33.89
68474;BME280;55461;52.066;5.194;2022-08-11T09:30:52;102283.0;;;27.41;34.17
68474;BME280;55461;52.066;5.194;2022-08-11T09:34:29;102275.0;;;27.44;32.96
68474;BME280;55461;52.066;5.194;2022-08-11T09:40:32;102268.0;;;27.7;33.1
68474;BME280;55461;52.066;5.194;2022-08-11T09:42:20;102265.0;;;27.71;31.33
68474;BME280;55461;52.066;5.194;2022-08-11T09:45:12;102264.0;;;27.91;31.95
68474;BME280;55461;52.066;5.194;2022-08-11T09:47:00;102264.0;;;27.96;31.19
68474;BME280;55461;52.066;5.194;2022-08-11T09:48:48;102263.0;;;28.06;29.96
68474;BME280;55461;52.066;5.194;2022-08-11T09:50:38;102260.0;;;28.09;29.91
68474;BME280;55461;52.066;5.194;2022-08-11T09:52:26;102259.0;;;28.08;30.48
68474;BME280;55461;52.066;5.194;2022-08-11T09:54:17;102257.0;;;28.23;30.45
68474;BME280;55461;52.066;5.194;2022-08-11T09:58:13;102257.0;;;28.29;30.21
68474;BME280;55461;52.066;5.194;2022-08-11T10:00:00;102258.0;;;28.44;29.54
68474;BME280;55461;52.066;5.194;2022-08-11T10:03:47;102256.0;;;28.49;29.32
68474;BME280;55461;52.066;5.194;2022-08-11T10:08:38;102256.0;;;28.69;27.87
68474;BME280;55461;52.066;5.194;2022-08-11T10:10:26;102260.0;;;28.74;28.14
68474;BME280;55461;52.066;5.194;2022-08-11T10:17:19;102255.0;;;29.05;28.86
68474;BME280;55461;52.066;5.194;2022-08-11T10:19:07;102252.0;;;29.05;28.64
68474;BME280;55461;52.066;5.194;2022-08-11T10:20:57;102248.0;;;29.09;28.08
68474;BME280;55461;52.066;5.194;2022-08-11T10:35:41;102239.0;;;29.41;28.24
68474;BME280;55461;52.066;5.194;2022-08-11T10:39:23;102242.0;;;29.46;28.39
68474;BME280;55461;52.066;5.194;2022-08-11T10:44:15;102243.0;;;29.32;28.12
68474;BME280;55461;52.066;5.194;2022-08-11T10:49:07;102240.0;;;29.3;28.84
68474;BME280;55461;52.066;5.194;2022-08-11T11:00:08;102215.0;;;29.58;28.98
68474;BME280;55461;52.066;5.194;2022-08-11T11:01:57;102221.0;;;29.72;29.39
68474;BME280;55461;52.066;5.194;2022-08-11T11:03:45;102223.0;;;29.86;28.29
68474;BME280;55461;52.066;5.194;2022-08-11T11:05:34;102216.0;;;29.98;29.42
68474;BME280;55461;52.066;5.194;2022-08-11T11:07:30;102220.0;;;30.04;28.84
68474;BME280;55461;52.066;5.194;2022-08-11T11:09:27;102213.0;;;30.02;27.93
68474;BME280;55461;52.066;5.194;2022-08-11T11:11:17;102216.0;;;30.06;27.85
68474;BME280;55461;52.066;5.194;2022-08-11T11:19:52;102215.0;;;30.43;27.72
68474;BME280;55461;52.066;5.194;2022-08-11T11:21:47;102214.0;;;30.58;27.54
68474;BME280;55461;52.066;5.194;2022-08-11T11:23:39;102210.0;;;30.58;26.61
68474;BME280;55461;52.066;5.194;2022-08-11T11:27:32;102209.0;;;30.72;28.52
68474;BME280;55461;52.066;5.194;2022-08-11T11:29:32;102206.0;;;30.66;26.3
68474;BME280;55461;52.066;5.194;2022-08-11T11:31:53;102205.0;;;30.63;25.86
68474;BME280;55461;52.066;5.194;2022-08-11T11:34:00;102202.0;;;30.78;27.37
68474;BME280;55461;52.066;5.194;2022-08-11T11:36:09;102197.0;;;30.87;27.28
68474;BME280;55461;52.066;5.194;2022-08-11T11:38:01;102193.0;;;30.78;24.99
68474;BME280;55461;52.066;5.194;2022-08-11T11:39:53;102195.0;;;30.88;25.3
68474;BME280;55461;52.066;5.194;2022-08-11T11:41:40;102194.0;;;30.98;24.44
68474;BME280;55461;52.066;5.194;2022-08-11T11:43:27;102191.0;;;31.06;24.39
68474;BME280;55461;52.066;5.194;2022-08-11T11:45:15;102194.0;;;30.59;24.83
68474;BME280;55461;52.066;5.194;2022-08-11T11:47:03;102193.0;;;30.84;25.06
68474;BME280;55461;52.066;5.194;2022-08-11T11:48:52;102188.0;;;31.08;24.64
68474;BME280;55461;52.066;5.194;2022-08-11T11:52:27;102184.0;;;31.2;24.68
68474;BME280;55461;52.066;5.194;2022-08-11T11:54:17;102191.0;;;31.35;26.01
68474;BME280;55461;52.066;5.194;2022-08-11T11:56:06;102184.0;;;31.39;24.7
68474;BME280;55461;52.066;5.194;2022-08-11T12:01:27;102182.0;;;31.61;25.43
68474;BME280;55461;52.066;5.194;2022-08-11T12:03:18;102176.0;;;31.73;24.89
68474;BME280;55461;52.066;5.194;2022-08-11T12:05:07;102173.0;;;31.84;24.64
68474;BME280;55461;52.066;5.194;2022-08-11T12:08:11;102172.0;;;31.84;24.87
68474;BME280;55461;52.066;5.194;2022-08-11T12:09:59;102172.0;;;31.98;24.97
68474;BME280;55461;52.066;5.194;2022-08-11T12:14:49;102164.0;;;31.96;24.89
68474;BME280;55461;52.066;5.194;2022-08-11T12:16:38;102167.0;;;31.94;23.88
68474;BME280;55461;52.066;5.194;2022-08-11T12:18:26;102161.0;;;32.0;23.58
68474;BME280;55461;52.066;5.194;2022-08-11T12:20:15;102160.0;;;32.04;23.28
68474;BME280;55461;52.066;5.194;2022-08-11T12:28:09;102153.0;;;32.17;23.83
68474;BME280;55461;52.066;5.194;2022-08-11T12:29:58;102149.0;;;32.17;23.75
68474;BME280;55461;52.066;5.194;2022-08-11T12:31:47;102144.0;;;32.28;23.4
68474;BME280;55461;52.066;5.194;2022-08-11T12:33:34;102142.0;;;32.24;23.33
68474;BME280;55461;52.066;5.194;2022-08-11T12:35:20;102141.0;;;32.39;23.45
68474;BME280;55461;52.066;5.194;2022-08-11T12:37:12;102139.0;;;32.24;23.22
68474;BME280;55461;52.066;5.194;2022-08-11T12:39:04;102135.0;;;32.22;24.59
68474;BME280;55461;52.066;5.194;2022-08-11T12:45:42;102130.0;;;32.28;23.95
68474;BME280;55461;52.066;5.194;2022-08-11T12:52:02;102119.0;;;32.44;23.92
68474;BME280;55461;52.066;5.194;2022-08-11T12:52:30;102113.0;;;32.49;23.92
68474;BME280;55461;52.066;5.194;2022-08-11T12:54:27;102115.0;;;32.43;23.81
68474;BME280;55461;52.066;5.194;2022-08-11T13:05:23;102113.0;;;32.07;22.03
68474;BME280;55461;52.066;5.194;2022-08-11T13:07:11;102118.0;;;32.25;23.4
68474;BME280;55461;52.066;5.194;2022-08-11T13:08:58;102109.0;;;32.42;23.93
68474;BME280;55461;52.066;5.194;2022-08-11T13:13:48;102113.0;;;32.64;23.26
68474;BME280;55461;52.066;5.194;2022-08-11T13:15:35;102109.0;;;32.82;22.94
68474;BME280;55461;52.066;5.194;2022-08-11T13:17:24;102103.0;;;32.92;23.41
68474;BME280;55461;52.066;5.194;2022-08-11T13:19:11;102101.0;;;33.1;23.46
68474;BME280;55461;52.066;5.194;2022-08-11T13:20:57;102098.0;;;33.14;23.65
68474;BME280;55461;52.066;5.194;2022-08-11T13:24:36;102092.0;;;33.24;22.63
68474;BME280;55461;52.066;5.194;2022-08-11T13:26:24;102091.0;;;33.35;21.78
68474;BME280;55461;52.066;5.194;2022-08-11T13:28:11;102087.0;;;33.25;21.52
68474;BME280;55461;52.066;5.194;2022-08-11T13:31:10;102084.0;;;33.44;22.09
68474;BME280;55461;52.066;5.194;2022-08-11T13:32:57;102084.0;;;33.47;21.33
68474;BME280;55461;52.066;5.194;2022-08-11T13:34:45;102086.0;;;33.51;21.32
68474;BME280;55461;52.066;5.194;2022-08-11T13:36:33;102090.0;;;33.64;21.48
68474;BME280;55461;52.066;5.194;2022-08-11T13:38:23;102081.0;;;33.68;22.26
68474;BME280;55461;52.066;5.194;2022-08-11T13:40:12;102088.0;;;33.53;21.86
68474;BME280;55461;52.066;5.194;2022-08-11T13:42:00;102080.0;;;33.33;21.18
68474;BME280;55461;52.066;5.194;2022-08-11T13:43:47;102078.0;;;33.28;21.4
68474;BME280;55461;52.066;5.194;2022-08-11T13:47:24;102082.0;;;33.53;21.61
68474;BME280;55461;52.066;5.194;2022-08-11T13:49:14;102076.0;;;33.74;21.23
68474;BME280;55461;52.066;5.194;2022-08-11T13:51:35;102073.0;;;33.71;21.57
68474;BME280;55461;52.066;5.194;2022-08-11T13:53:26;102069.0;;;33.69;20.64
68474;BME280;55461;52.066;5.194;2022-08-11T13:55:20;102065.0;;;33.82;21.52
68474;BME280;55461;52.066;5.194;2022-08-11T13:57:09;102070.0;;;34.03;21.48
68474;BME280;55461;52.066;5.194;2022-08-11T13:59:00;102064.0;;;34.1;21.32
68474;BME280;55461;52.066;5.194;2022-08-11T14:00:49;102064.0;;;34.14;21.17
68474;BME280;55461;52.066;5.194;2022-08-11T14:02:39;102060.0;;;34.18;20.86
68474;BME280;55461;52.066;5.194;2022-08-11T14:06:23;102067.0;;;34.17;20.62
68474;BME280;55461;52.066;5.194;2022-08-11T14:08:34;102061.0;;;34.19;21.08
68474;BME280;55461;52.066;5.194;2022-08-11T14:10:26;102058.0;;;34.39;20.98
68474;BME280;55461;52.066;5.194;2022-08-11T14:15:21;102052.0;;;34.67;20.27
68474;BME280;55461;52.066;5.194;2022-08-11T14:19:00;102039.0;;;34.68;20.27
68474;BME280;55461;52.066;5.194;2022-08-11T14:23:54;102039.0;;;34.79;20.66
68474;BME280;55461;52.066;5.194;2022-08-11T14:26:22;102041.0;;;34.83;20.13
68474;BME280;55461;52.066;5.194;2022-08-11T14:28:09;102038.0;;;34.83;20.2
68474;BME280;55461;52.066;5.194;2022-08-11T14:29:56;102037.0;;;34.78;19.97
68474;BME280;55461;52.066;5.194;2022-08-11T14:33:35;102033.0;;;34.74;19.87
68474;BME280;55461;52.066;5.194;2022-08-11T14:35:24;102033.0;;;34.75;19.06
68474;BME280;55461;52.066;5.194;2022-08-11T14:37:14;102035.0;;;34.71;19.43
68474;BME280;55461;52.066;5.194;2022-08-11T14:39:08;102028.0;;;34.49;19.11
68474;BME280;55461;52.066;5.194;2022-08-11T14:47:40;102028.0;;;34.14;19.73
68474;BME280;55461;52.066;5.194;2022-08-11T14:49:28;102022.0;;;33.61;20.7
68474;BME280;55461;52.066;5.194;2022-08-11T14:51:15;102028.0;;;33.83;20.61
68474;BME280;55461;52.066;5.194;2022-08-11T14:53:06;102024.0;;;33.76;20.96
68474;BME280;55461;52.066;5.194;2022-08-11T14:58:39;102017.0;;;33.39;20.53
68474;BME280;55461;52.066;5.194;2022-08-11T15:00:28;102021.0;;;33.14;20.09
68474;BME280;55461;52.066;5.194;2022-08-11T15:03:21;102021.0;;;33.24;20.56
68474;BME280;55461;52.066;5.194;2022-08-11T15:05:09;102019.0;;;33.08;20.76
68474;BME280;55461;52.066;5.194;2022-08-11T15:06:56;102008.0;;;32.47;20.6
68474;BME280;55461;52.066;5.194;2022-08-11T15:09:00;102011.0;;;32.74;21.26
68474;BME280;55461;52.066;5.194;2022-08-11T15:10:48;102010.0;;;33.03;21.35
68474;BME280;55461;52.066;5.194;2022-08-11T15:12:36;102010.0;;;33.1;21.15
68474;BME280;55461;52.066;5.194;2022-08-11T15:18:11;102003.0;;;33.14;20.16
68474;BME280;55461;52.066;5.194;2022-08-11T15:24:24;101997.0;;;33.26;20.09
68474;BME280;55461;52.066;5.194;2022-08-11T15:38:33;101982.0;;;33.78;19.47
68474;BME280;55461;52.066;5.194;2022-08-11T15:46:40;101981.0;;;34.14;19.66
68474;BME280;55461;52.066;5.194;2022-08-11T15:48:40;101980.0;;;34.06;20.22
68474;BME280;55461;52.066;5.194;2022-08-11T15:50:32;101975.0;;;33.78;20.39
68474;BME280;55461;52.066;5.194;2022-08-11T15:52:22;101973.0;;;33.51;20.41
68474;BME280;55461;52.066;5.194;2022-08-11T15:54:12;101977.0;;;33.26;20.92
68474;BME280;55461;52.066;5.194;2022-08-11T15:56:01;101973.0;;;33.35;20.66